sensor_id;sensor_type;location;lat;lon;timestamp;temperature;humidity
51837;DHT22;38941;53.254;6.600;2022-12-31T00:01:30;11.70;99.90
51837;DHT22;38941;53.254;6.600;2022-12-31T00:03:31;11.80;99.90
51837;DHT22;38941;53.254;6.600;2022-12-31T00:05:33;11.80;99.90
51837;DHT22;38941;53.254;6.600;2022-12-31T00:07:35;11.80;99.90
51837;DHT22;38941;53.254;6.600;2022-12-31T00:09:36;11.80;99.90
51837;DHT22;38941;53.254;6.600;2022-12-31T00:11:37;11.80;99.90
51837;DHT22;38941;53.254;6.600;2022-12-31T00:13:38;11.80;99.90
51837;DHT22;38941;53.254;6.600;2022-12-31T00:15:40;12.20;99.90
51837;DHT22;38941;53.254;6.600;2022-12-31T00:17:41;12.00;99.90
51837;DHT22;38941;53.254;6.600;2022-12-31T00:19:41;11.90;99.90
51837;DHT22;38941;53.254;6.600;2022-12-31T00:21:42;11.90;99.90
51837;DHT22;38941;53.254;6.600;2022-12-31T00:23:43;11.90;99.90
51837;DHT22;38941;53.254;6.600;2022-12-31T00:25:44;12.00;99.90
51837;DHT22;38941;53.254;6.600;2022-12-31T00:27:45;12.00;99.90
51837;DHT22;38941;53.254;6.600;2022-12-31T00:29:45;12.10;99.90
51837;DHT22;38941;53.254;6.600;2022-12-31T00:31:46;12.00;99.90
51837;DHT22;38941;53.254;6.600;2022-12-31T00:33:47;11.90;99.90
51837;DHT22;38941;53.254;6.600;2022-12-31T00:35:48;11.90;99.90
51837;DHT22;38941;53.254;6.600;2022-12-31T00:37:51;11.90;99.90
51837;DHT22;38941;53.254;6.600;2022-12-31T00:39:52;11.80;99.90
51837;DHT22;38941;53.254;6.600;2022-12-31T00:41:53;11.80;99.90
51837;DHT22;38941;53.254;6.600;2022-12-31T00:43:54;11.80;99.90
51837;DHT22;38941;53.254;6.600;2022-12-31T00:45:56;11.50;99.90
51837;DHT22;38941;53.254;6.600;2022-12-31T00:47:56;12.50;99.90
51837;DHT22;38941;53.254;6.600;2022-12-31T00:49:57;12.50;99.90
51837;DHT22;38941;53.254;6.600;2022-12-31T00:51:58;12.50;99.90
51837;DHT22;38941;53.254;6.600;2022-12-31T00:53:59;11.80;99.90
51837;DHT22;38941;53.254;6.600;2022-12-31T00:56:05;11.80;99.90
51837;DHT22;38941;53.254;6.600;2022-12-31T00:58:06;12.50;99.90
51837;DHT22;38941;53.254;6.600;2022-12-31T01:00:07;11.90;99.90
51837;DHT22;38941;53.254;6.600;2022-12-31T01:02:08;12.10;99.90
51837;DHT22;38941;53.254;6.600;2022-12-31T01:04:12;12.10;99.90
51837;DHT22;38941;53.254;6.600;2022-12-31T01:06:13;12.50;99.90
51837;DHT22;38941;53.254;6.600;2022-12-31T01:08:14;12.10;99.90
51837;DHT22;38941;53.254;6.600;2022-12-31T01:14:38;11.80;99.90
51837;DHT22;38941;53.254;6.600;2022-12-31T01:16:50;12.00;99.90
51837;DHT22;38941;53.254;6.600;2022-12-31T01:18:52;11.70;99.90
51837;DHT22;38941;53.254;6.600;2022-12-31T01:20:54;12.00;99.90
51837;DHT22;38941;53.254;6.600;2022-12-31T01:22:55;12.00;99.90
51837;DHT22;38941;53.254;6.600;2022-12-31T01:24:56;11.70;99.90
51837;DHT22;38941;53.254;6.600;2022-12-31T01:26:56;12.00;99.90
51837;DHT22;38941;53.254;6.600;2022-12-31T01:28:57;12.00;99.90
51837;DHT22;38941;53.254;6.600;2022-12-31T01:31:03;12.80;99.90
51837;DHT22;38941;53.254;6.600;2022-12-31T01:33:04;12.00;99.90
51837;DHT22;38941;53.254;6.600;2022-12-31T01:35:05;12.70;99.90
51837;DHT22;38941;53.254;6.600;2022-12-31T01:37:07;11.60;99.90
51837;DHT22;38941;53.254;6.600;2022-12-31T01:39:08;11.90;99.90
51837;DHT22;38941;53.254;6.600;2022-12-31T01:41:15;11.40;99.90
51837;DHT22;38941;53.254;6.600;2022-12-31T01:43:18;10.10;99.90
51837;DHT22;38941;53.254;6.600;2022-12-31T01:45:19;11.90;99.90
51837;DHT22;38941;53.254;6.600;2022-12-31T01:47:40;11.90;99.90
51837;DHT22;38941;53.254;6.600;2022-12-31T01:49:49;11.90;99.90
51837;DHT22;38941;53.254;6.600;2022-12-31T01:51:59;11.60;99.90
51837;DHT22;38941;53.254;6.600;2022-12-31T01:54:04;11.50;99.90
51837;DHT22;38941;53.254;6.600;2022-12-31T01:56:06;11.60;99.90
51837;DHT22;38941;53.254;6.600;2022-12-31T01:58:15;11.60;99.90
51837;DHT22;38941;53.254;6.600;2022-12-31T02:00:16;11.60;99.90
51837;DHT22;38941;53.254;6.600;2022-12-31T02:02:17;11.60;99.90
51837;DHT22;38941;53.254;6.600;2022-12-31T02:04:21;11.60;99.90
51837;DHT22;38941;53.254;6.600;2022-12-31T02:06:30;11.60;99.90
51837;DHT22;38941;53.254;6.600;2022-12-31T02:08:31;11.60;99.90
51837;DHT22;38941;53.254;6.600;2022-12-31T02:10:32;11.60;99.90
51837;DHT22;38941;53.254;6.600;2022-12-31T02:12:33;11.60;99.90
51837;DHT22;38941;53.254;6.600;2022-12-31T02:14:38;11.60;99.90
51837;DHT22;38941;53.254;6.600;2022-12-31T02:30:58;11.90;99.90
51837;DHT22;38941;53.254;6.600;2022-12-31T02:38:30;12.30;99.90
51837;DHT22;38941;53.254;6.600;2022-12-31T02:40:44;11.80;99.90
51837;DHT22;38941;53.254;6.600;2022-12-31T02:42:57;11.80;99.90
51837;DHT22;38941;53.254;6.600;2022-12-31T02:44:58;11.80;99.90
51837;DHT22;38941;53.254;6.600;2022-12-31T02:51:45;11.70;99.90
51837;DHT22;38941;53.254;6.600;2022-12-31T02:54:41;12.00;99.90
51837;DHT22;38941;53.254;6.600;2022-12-31T02:59:08;11.80;99.90
51837;DHT22;38941;53.254;6.600;2022-12-31T03:01:33;11.80;99.90
51837;DHT22;38941;53.254;6.600;2022-12-31T03:03:53;12.20;99.90
51837;DHT22;38941;53.254;6.600;2022-12-31T03:06:16;11.80;99.90
51837;DHT22;38941;53.254;6.600;2022-12-31T03:08:21;11.80;99.90
51837;DHT22;38941;53.254;6.600;2022-12-31T03:10:23;11.80;99.90
51837;DHT22;38941;53.254;6.600;2022-12-31T03:12:30;11.70;99.90
51837;DHT22;38941;53.254;6.600;2022-12-31T03:14:49;11.80;99.90
51837;DHT22;38941;53.254;6.600;2022-12-31T03:16:50;11.80;99.90
51837;DHT22;38941;53.254;6.600;2022-12-31T03:18:51;11.80;99.90
51837;DHT22;38941;53.254;6.600;2022-12-31T03:27:37;11.70;99.90
51837;DHT22;38941;53.254;6.600;2022-12-31T03:29:38;11.60;99.90
51837;DHT22;38941;53.254;6.600;2022-12-31T03:31:38;11.60;99.90
51837;DHT22;38941;53.254;6.600;2022-12-31T03:33:40;11.60;99.90
51837;DHT22;38941;53.254;6.600;2022-12-31T03:35:43;11.60;99.90
51837;DHT22;38941;53.254;6.600;2022-12-31T03:37:44;11.60;99.90
51837;DHT22;38941;53.254;6.600;2022-12-31T03:39:45;11.50;99.90
51837;DHT22;38941;53.254;6.600;2022-12-31T03:41:46;11.50;99.90
51837;DHT22;38941;53.254;6.600;2022-12-31T03:43:47;11.50;99.90
51837;DHT22;38941;53.254;6.600;2022-12-31T03:45:53;11.50;99.90
51837;DHT22;38941;53.254;6.600;2022-12-31T03:47:53;11.40;99.90
51837;DHT22;38941;53.254;6.600;2022-12-31T03:49:54;11.50;99.90
51837;DHT22;38941;53.254;6.600;2022-12-31T03:51:55;11.40;99.90
51837;DHT22;38941;53.254;6.600;2022-12-31T03:53:56;11.40;99.90
51837;DHT22;38941;53.254;6.600;2022-12-31T03:55:56;11.40;99.90
51837;DHT22;38941;53.254;6.600;2022-12-31T03:57:58;11.40;99.90
51837;DHT22;38941;53.254;6.600;2022-12-31T03:59:58;11.40;99.90
51837;DHT22;38941;53.254;6.600;2022-12-31T04:01:59;11.40;99.90
51837;DHT22;38941;53.254;6.600;2022-12-31T04:04:00;11.30;99.90
51837;DHT22;38941;53.254;6.600;2022-12-31T04:06:01;11.30;99.90
51837;DHT22;38941;53.254;6.600;2022-12-31T04:08:01;11.30;99.90
51837;DHT22;38941;53.254;6.600;2022-12-31T04:10:07;11.30;99.90
51837;DHT22;38941;53.254;6.600;2022-12-31T04:12:08;11.30;99.90
51837;DHT22;38941;53.254;6.600;2022-12-31T04:14:09;11.30;99.90
51837;DHT22;38941;53.254;6.600;2022-12-31T04:16:10;11.30;99.90
51837;DHT22;38941;53.254;6.600;2022-12-31T04:18:11;11.20;99.90
51837;DHT22;38941;53.254;6.600;2022-12-31T04:20:13;11.30;99.90
51837;DHT22;38941;53.254;6.600;2022-12-31T04:22:15;11.30;99.90
51837;DHT22;38941;53.254;6.600;2022-12-31T04:24:16;11.20;99.90
51837;DHT22;38941;53.254;6.600;2022-12-31T04:26:17;11.30;99.90
51837;DHT22;38941;53.254;6.600;2022-12-31T04:28:17;11.20;99.90
51837;DHT22;38941;53.254;6.600;2022-12-31T04:30:18;11.20;99.90
51837;DHT22;38941;53.254;6.600;2022-12-31T04:32:19;11.20;99.90
51837;DHT22;38941;53.254;6.600;2022-12-31T04:34:20;11.20;99.90
51837;DHT22;38941;53.254;6.600;2022-12-31T04:36:21;11.20;99.90
51837;DHT22;38941;53.254;6.600;2022-12-31T04:38:22;11.40;99.90
51837;DHT22;38941;53.254;6.600;2022-12-31T04:40:23;11.20;99.90
51837;DHT22;38941;53.254;6.600;2022-12-31T04:42:23;11.20;99.90
51837;DHT22;38941;53.254;6.600;2022-12-31T04:44:24;11.40;99.90
51837;DHT22;38941;53.254;6.600;2022-12-31T04:46:30;11.10;99.90
51837;DHT22;38941;53.254;6.600;2022-12-31T04:48:31;11.80;99.90
51837;DHT22;38941;53.254;6.600;2022-12-31T04:50:32;11.40;99.90
51837;DHT22;38941;53.254;6.600;2022-12-31T04:52:33;11.40;99.90
51837;DHT22;38941;53.254;6.600;2022-12-31T04:54:34;11.10;99.90
51837;DHT22;38941;53.254;6.600;2022-12-31T04:56:34;11.10;99.90
51837;DHT22;38941;53.254;6.600;2022-12-31T04:58:37;11.30;99.90
51837;DHT22;38941;53.254;6.600;2022-12-31T05:00:38;11.30;99.90
51837;DHT22;38941;53.254;6.600;2022-12-31T05:02:38;11.10;99.90
51837;DHT22;38941;53.254;6.600;2022-12-31T05:04:40;11.10;99.90
51837;DHT22;38941;53.254;6.600;2022-12-31T05:06:41;11.30;99.90
51837;DHT22;38941;53.254;6.600;2022-12-31T05:08:42;11.00;99.90
51837;DHT22;38941;53.254;6.600;2022-12-31T05:10:46;10.70;99.90
51837;DHT22;38941;53.254;6.600;2022-12-31T05:12:47;11.30;99.90
51837;DHT22;38941;53.254;6.600;2022-12-31T05:14:48;11.00;99.90
51837;DHT22;38941;53.254;6.600;2022-12-31T05:16:49;11.30;99.90
51837;DHT22;38941;53.254;6.600;2022-12-31T05:18:51;12.30;99.90
51837;DHT22;38941;53.254;6.600;2022-12-31T05:20:51;11.00;99.90
51837;DHT22;38941;53.254;6.600;2022-12-31T05:22:52;11.30;99.90
51837;DHT22;38941;53.254;6.600;2022-12-31T05:24:53;11.00;99.90
51837;DHT22;38941;53.254;6.600;2022-12-31T05:26:54;11.20;99.90
51837;DHT22;38941;53.254;6.600;2022-12-31T05:28:54;11.40;99.90
51837;DHT22;38941;53.254;6.600;2022-12-31T05:30:57;11.20;99.90
51837;DHT22;38941;53.254;6.600;2022-12-31T05:32:58;11.20;99.90
51837;DHT22;38941;53.254;6.600;2022-12-31T05:34:59;11.00;99.90
51837;DHT22;38941;53.254;6.600;2022-12-31T05:37:00;11.20;99.90
51837;DHT22;38941;53.254;6.600;2022-12-31T05:39:00;11.00;99.90
51837;DHT22;38941;53.254;6.600;2022-12-31T05:41:03;10.90;99.90
51837;DHT22;38941;53.254;6.600;2022-12-31T05:43:05;11.20;99.90
51837;DHT22;38941;53.254;6.600;2022-12-31T05:45:06;11.20;99.90
51837;DHT22;38941;53.254;6.600;2022-12-31T05:47:07;12.80;99.90
51837;DHT22;38941;53.254;6.600;2022-12-31T05:49:08;11.60;99.90
51837;DHT22;38941;53.254;6.600;2022-12-31T05:51:10;10.90;99.90
51837;DHT22;38941;53.254;6.600;2022-12-31T05:53:10;11.00;99.90
51837;DHT22;38941;53.254;6.600;2022-12-31T05:55:12;10.60;99.90
51837;DHT22;38941;53.254;6.600;2022-12-31T05:57:13;11.00;99.90
51837;DHT22;38941;53.254;6.600;2022-12-31T05:59:14;11.10;99.90
51837;DHT22;38941;53.254;6.600;2022-12-31T06:01:15;11.30;99.90
51837;DHT22;38941;53.254;6.600;2022-12-31T06:03:16;11.60;99.90
51837;DHT22;38941;53.254;6.600;2022-12-31T06:05:17;11.20;99.90
51837;DHT22;38941;53.254;6.600;2022-12-31T06:07:18;10.40;99.90
51837;DHT22;38941;53.254;6.600;2022-12-31T06:09:19;11.90;99.90
51837;DHT22;38941;53.254;6.600;2022-12-31T06:11:20;11.20;99.90
51837;DHT22;38941;53.254;6.600;2022-12-31T06:13:21;10.90;99.90
51837;DHT22;38941;53.254;6.600;2022-12-31T06:15:22;11.20;99.90
51837;DHT22;38941;53.254;6.600;2022-12-31T06:17:23;11.90;99.90
51837;DHT22;38941;53.254;6.600;2022-12-31T06:19:24;11.40;99.90
51837;DHT22;38941;53.254;6.600;2022-12-31T06:21:25;11.50;99.90
51837;DHT22;38941;53.254;6.600;2022-12-31T06:23:26;10.90;99.90
51837;DHT22;38941;53.254;6.600;2022-12-31T06:25:27;10.90;99.90
51837;DHT22;38941;53.254;6.600;2022-12-31T06:27:27;11.10;99.90
51837;DHT22;38941;53.254;6.600;2022-12-31T06:29:28;10.80;99.90
51837;DHT22;38941;53.254;6.600;2022-12-31T06:31:29;11.40;99.90
51837;DHT22;38941;53.254;6.600;2022-12-31T06:33:30;10.70;99.90
51837;DHT22;38941;53.254;6.600;2022-12-31T06:35:31;11.10;99.90
51837;DHT22;38941;53.254;6.600;2022-12-31T06:37:33;10.90;99.90
51837;DHT22;38941;53.254;6.600;2022-12-31T06:39:34;11.40;99.90
51837;DHT22;38941;53.254;6.600;2022-12-31T06:41:35;10.90;99.90
51837;DHT22;38941;53.254;6.600;2022-12-31T06:43:38;11.10;99.90
51837;DHT22;38941;53.254;6.600;2022-12-31T06:45:38;11.00;99.90
51837;DHT22;38941;53.254;6.600;2022-12-31T06:47:39;11.70;99.90
51837;DHT22;38941;53.254;6.600;2022-12-31T06:49:40;11.20;99.90
51837;DHT22;38941;53.254;6.600;2022-12-31T06:51:41;10.80;99.90
51837;DHT22;38941;53.254;6.600;2022-12-31T06:53:42;10.80;99.90
51837;DHT22;38941;53.254;6.600;2022-12-31T06:55:43;10.80;99.90
51837;DHT22;38941;53.254;6.600;2022-12-31T06:57:44;10.70;99.90
51837;DHT22;38941;53.254;6.600;2022-12-31T06:59:45;10.80;99.90
51837;DHT22;38941;53.254;6.600;2022-12-31T07:02:02;10.40;99.90
51837;DHT22;38941;53.254;6.600;2022-12-31T07:06:15;10.30;99.90
51837;DHT22;38941;53.254;6.600;2022-12-31T07:08:36;10.60;99.90
51837;DHT22;38941;53.254;6.600;2022-12-31T07:11:21;10.30;99.90
51837;DHT22;38941;53.254;6.600;2022-12-31T07:15:47;10.30;99.90
51837;DHT22;38941;53.254;6.600;2022-12-31T07:20:24;10.20;99.90
51837;DHT22;38941;53.254;6.600;2022-12-31T07:22:25;10.20;99.90
51837;DHT22;38941;53.254;6.600;2022-12-31T07:24:26;10.20;99.90
51837;DHT22;38941;53.254;6.600;2022-12-31T07:29:37;10.30;99.90
51837;DHT22;38941;53.254;6.600;2022-12-31T07:35:01;10.30;99.90
51837;DHT22;38941;53.254;6.600;2022-12-31T07:39:17;10.40;99.90
51837;DHT22;38941;53.254;6.600;2022-12-31T07:43:55;10.40;99.90
51837;DHT22;38941;53.254;6.600;2022-12-31T07:48:00;10.50;99.90
51837;DHT22;38941;53.254;6.600;2022-12-31T07:50:02;10.50;99.90
51837;DHT22;38941;53.254;6.600;2022-12-31T07:52:03;10.50;99.90
51837;DHT22;38941;53.254;6.600;2022-12-31T07:54:04;10.50;99.90
51837;DHT22;38941;53.254;6.600;2022-12-31T07:56:07;10.40;99.90
51837;DHT22;38941;53.254;6.600;2022-12-31T08:00:45;10.40;99.90
51837;DHT22;38941;53.254;6.600;2022-12-31T08:05:55;10.40;99.90
51837;DHT22;38941;53.254;6.600;2022-12-31T08:10:23;10.50;99.90
51837;DHT22;38941;53.254;6.600;2022-12-31T08:12:26;10.40;99.90
51837;DHT22;38941;53.254;6.600;2022-12-31T08:14:40;10.40;99.90
51837;DHT22;38941;53.254;6.600;2022-12-31T08:16:43;10.40;99.90
51837;DHT22;38941;53.254;6.600;2022-12-31T08:18:44;10.40;99.90
51837;DHT22;38941;53.254;6.600;2022-12-31T08:23:19;10.40;99.90
51837;DHT22;38941;53.254;6.600;2022-12-31T08:25:26;10.40;99.90
51837;DHT22;38941;53.254;6.600;2022-12-31T08:30:14;10.40;99.90
51837;DHT22;38941;53.254;6.600;2022-12-31T08:32:25;10.50;99.90
51837;DHT22;38941;53.254;6.600;2022-12-31T08:34:40;10.40;99.90
51837;DHT22;38941;53.254;6.600;2022-12-31T08:37:04;10.40;99.90
51837;DHT22;38941;53.254;6.600;2022-12-31T08:39:21;10.50;99.90
51837;DHT22;38941;53.254;6.600;2022-12-31T08:41:33;10.50;99.90
51837;DHT22;38941;53.254;6.600;2022-12-31T08:46:16;10.50;99.90
51837;DHT22;38941;53.254;6.600;2022-12-31T08:48:24;10.50;99.90
51837;DHT22;38941;53.254;6.600;2022-12-31T08:50:28;9.90;99.90
51837;DHT22;38941;53.254;6.600;2022-12-31T08:52:35;10.60;99.90
51837;DHT22;38941;53.254;6.600;2022-12-31T08:54:42;10.60;99.90
51837;DHT22;38941;53.254;6.600;2022-12-31T08:57:02;10.60;99.90
51837;DHT22;38941;53.254;6.600;2022-12-31T08:59:25;10.70;99.90
51837;DHT22;38941;53.254;6.600;2022-12-31T09:01:41;10.70;99.90
51837;DHT22;38941;53.254;6.600;2022-12-31T09:06:41;10.90;99.90
51837;DHT22;38941;53.254;6.600;2022-12-31T09:09:37;10.90;99.90
51837;DHT22;38941;53.254;6.600;2022-12-31T09:11:56;11.00;99.90
51837;DHT22;38941;53.254;6.600;2022-12-31T09:19:08;11.30;99.90
51837;DHT22;38941;53.254;6.600;2022-12-31T09:21:11;11.30;99.90
51837;DHT22;38941;53.254;6.600;2022-12-31T09:23:12;11.40;99.90
51837;DHT22;38941;53.254;6.600;2022-12-31T09:25:15;11.40;99.90
51837;DHT22;38941;53.254;6.600;2022-12-31T09:27:27;11.50;99.90
51837;DHT22;38941;53.254;6.600;2022-12-31T09:30:01;11.60;99.90
51837;DHT22;38941;53.254;6.600;2022-12-31T09:36:48;11.80;99.90
51837;DHT22;38941;53.254;6.600;2022-12-31T09:38:57;11.80;99.90
51837;DHT22;38941;53.254;6.600;2022-12-31T09:56:11;12.30;99.90
51837;DHT22;38941;53.254;6.600;2022-12-31T09:58:42;12.30;99.90
51837;DHT22;38941;53.254;6.600;2022-12-31T10:00:57;12.30;99.90
51837;DHT22;38941;53.254;6.600;2022-12-31T10:05:41;12.50;99.90
51837;DHT22;38941;53.254;6.600;2022-12-31T10:08:11;12.60;99.90
51837;DHT22;38941;53.254;6.600;2022-12-31T10:10:23;12.60;99.90
51837;DHT22;38941;53.254;6.600;2022-12-31T10:15:04;12.70;99.90
51837;DHT22;38941;53.254;6.600;2022-12-31T10:29:08;13.00;99.90
51837;DHT22;38941;53.254;6.600;2022-12-31T10:33:24;13.10;99.90
51837;DHT22;38941;53.254;6.600;2022-12-31T10:49:48;13.30;99.90
51837;DHT22;38941;53.254;6.600;2022-12-31T10:57:00;13.70;99.90
51837;DHT22;38941;53.254;6.600;2022-12-31T10:59:49;13.80;99.90
51837;DHT22;38941;53.254;6.600;2022-12-31T11:18:29;13.70;99.90
51837;DHT22;38941;53.254;6.600;2022-12-31T11:20:48;13.60;99.90
51837;DHT22;38941;53.254;6.600;2022-12-31T11:25:33;13.60;99.90
51837;DHT22;38941;53.254;6.600;2022-12-31T11:27:53;13.60;99.90
51837;DHT22;38941;53.254;6.600;2022-12-31T11:30:21;13.70;99.90
51837;DHT22;38941;53.254;6.600;2022-12-31T11:32:56;13.70;99.90
51837;DHT22;38941;53.254;6.600;2022-12-31T11:44:50;13.70;99.90
51837;DHT22;38941;53.254;6.600;2022-12-31T11:49:15;13.70;99.90
51837;DHT22;38941;53.254;6.600;2022-12-31T11:51:31;13.70;99.90
51837;DHT22;38941;53.254;6.600;2022-12-31T11:53:43;13.70;99.90
51837;DHT22;38941;53.254;6.600;2022-12-31T11:58:03;13.70;99.90
51837;DHT22;38941;53.254;6.600;2022-12-31T12:00:17;13.70;99.90
51837;DHT22;38941;53.254;6.600;2022-12-31T12:04:27;13.60;99.90
51837;DHT22;38941;53.254;6.600;2022-12-31T12:06:30;13.70;99.90
51837;DHT22;38941;53.254;6.600;2022-12-31T12:08:31;13.60;99.90
51837;DHT22;38941;53.254;6.600;2022-12-31T12:10:47;13.60;99.90
51837;DHT22;38941;53.254;6.600;2022-12-31T12:12:51;13.60;99.90
51837;DHT22;38941;53.254;6.600;2022-12-31T12:14:54;13.60;99.90
51837;DHT22;38941;53.254;6.600;2022-12-31T12:16:56;13.60;99.90
51837;DHT22;38941;53.254;6.600;2022-12-31T12:19:04;13.60;99.90
51837;DHT22;38941;53.254;6.600;2022-12-31T12:23:15;13.60;99.90
51837;DHT22;38941;53.254;6.600;2022-12-31T12:25:20;13.60;99.90
51837;DHT22;38941;53.254;6.600;2022-12-31T12:27:26;13.60;99.90
51837;DHT22;38941;53.254;6.600;2022-12-31T12:29:32;13.50;99.90
51837;DHT22;38941;53.254;6.600;2022-12-31T12:31:33;13.50;99.90
51837;DHT22;38941;53.254;6.600;2022-12-31T12:33:44;13.60;99.90
51837;DHT22;38941;53.254;6.600;2022-12-31T12:35:45;13.50;99.90
51837;DHT22;38941;53.254;6.600;2022-12-31T12:38:11;13.50;99.90
51837;DHT22;38941;53.254;6.600;2022-12-31T12:40:22;13.50;99.90
51837;DHT22;38941;53.254;6.600;2022-12-31T12:42:27;13.70;99.90
51837;DHT22;38941;53.254;6.600;2022-12-31T12:44:30;13.50;99.90
51837;DHT22;38941;53.254;6.600;2022-12-31T12:46:42;13.50;99.90
51837;DHT22;38941;53.254;6.600;2022-12-31T12:48:46;13.50;99.90
51837;DHT22;38941;53.254;6.600;2022-12-31T12:50:48;13.50;99.90
51837;DHT22;38941;53.254;6.600;2022-12-31T12:52:52;13.50;99.90
51837;DHT22;38941;53.254;6.600;2022-12-31T13:09:16;13.50;99.90
51837;DHT22;38941;53.254;6.600;2022-12-31T13:11:59;13.50;99.90
51837;DHT22;38941;53.254;6.600;2022-12-31T13:23:41;13.60;99.90
51837;DHT22;38941;53.254;6.600;2022-12-31T13:26:09;13.50;99.90
51837;DHT22;38941;53.254;6.600;2022-12-31T13:28:14;13.50;99.90
51837;DHT22;38941;53.254;6.600;2022-12-31T13:30:25;13.50;99.90
51837;DHT22;38941;53.254;6.600;2022-12-31T13:32:38;13.50;99.90
51837;DHT22;38941;53.254;6.600;2022-12-31T13:34:42;13.50;99.90
51837;DHT22;38941;53.254;6.600;2022-12-31T13:36:46;13.50;99.90
51837;DHT22;38941;53.254;6.600;2022-12-31T13:38:51;13.40;99.90
51837;DHT22;38941;53.254;6.600;2022-12-31T13:43:23;13.30;99.90
51837;DHT22;38941;53.254;6.600;2022-12-31T13:45:31;13.30;99.90
51837;DHT22;38941;53.254;6.600;2022-12-31T13:47:45;13.20;99.90
51837;DHT22;38941;53.254;6.600;2022-12-31T13:52:29;13.00;99.90
51837;DHT22;38941;53.254;6.600;2022-12-31T13:54:43;13.00;99.90
51837;DHT22;38941;53.254;6.600;2022-12-31T13:59:34;12.90;99.90
51837;DHT22;38941;53.254;6.600;2022-12-31T14:01:23;12.80;99.90
51837;DHT22;38941;53.254;6.600;2022-12-31T14:06:07;12.80;99.90
51837;DHT22;38941;53.254;6.600;2022-12-31T14:08:09;12.70;99.90
51837;DHT22;38941;53.254;6.600;2022-12-31T14:10:12;12.70;99.90
51837;DHT22;38941;53.254;6.600;2022-12-31T14:14:57;12.70;99.90
51837;DHT22;38941;53.254;6.600;2022-12-31T14:17:04;12.70;99.90
51837;DHT22;38941;53.254;6.600;2022-12-31T14:23:40;12.60;99.90
51837;DHT22;38941;53.254;6.600;2022-12-31T14:26:08;12.60;99.90
51837;DHT22;38941;53.254;6.600;2022-12-31T14:28:20;12.60;99.90
51837;DHT22;38941;53.254;6.600;2022-12-31T14:30:28;12.60;99.90
51837;DHT22;38941;53.254;6.600;2022-12-31T14:51:12;12.70;99.90
51837;DHT22;38941;53.254;6.600;2022-12-31T14:53:21;12.70;99.90
51837;DHT22;38941;53.254;6.600;2022-12-31T14:55:28;12.70;99.90
51837;DHT22;38941;53.254;6.600;2022-12-31T14:57:35;12.70;99.90
51837;DHT22;38941;53.254;6.600;2022-12-31T14:59:37;12.70;99.90
51837;DHT22;38941;53.254;6.600;2022-12-31T15:01:44;12.70;99.90
51837;DHT22;38941;53.254;6.600;2022-12-31T15:03:45;12.60;99.90
51837;DHT22;38941;53.254;6.600;2022-12-31T15:11:11;12.60;99.90
51837;DHT22;38941;53.254;6.600;2022-12-31T15:13:24;12.60;99.90
51837;DHT22;38941;53.254;6.600;2022-12-31T15:20:56;12.50;99.90
51837;DHT22;38941;53.254;6.600;2022-12-31T15:22:58;12.40;99.90
51837;DHT22;38941;53.254;6.600;2022-12-31T15:25:01;12.40;99.90
51837;DHT22;38941;53.254;6.600;2022-12-31T15:27:04;12.30;99.90
51837;DHT22;38941;53.254;6.600;2022-12-31T15:29:29;12.30;99.90
51837;DHT22;38941;53.254;6.600;2022-12-31T15:31:34;12.30;99.90
51837;DHT22;38941;53.254;6.600;2022-12-31T15:33:39;12.20;99.90
51837;DHT22;38941;53.254;6.600;2022-12-31T15:35:52;12.20;99.90
51837;DHT22;38941;53.254;6.600;2022-12-31T15:40:19;12.20;99.90
51837;DHT22;38941;53.254;6.600;2022-12-31T15:42:42;12.40;99.90
51837;DHT22;38941;53.254;6.600;2022-12-31T15:44:55;13.20;99.90
51837;DHT22;38941;53.254;6.600;2022-12-31T15:47:49;12.30;99.90
51837;DHT22;38941;53.254;6.600;2022-12-31T15:49:24;12.70;99.90
51837;DHT22;38941;53.254;6.600;2022-12-31T15:51:35;12.10;99.90
51837;DHT22;38941;53.254;6.600;2022-12-31T15:53:41;12.20;99.90
51837;DHT22;38941;53.254;6.600;2022-12-31T15:55:46;12.10;99.90
51837;DHT22;38941;53.254;6.600;2022-12-31T15:57:49;12.20;99.90
51837;DHT22;38941;53.254;6.600;2022-12-31T15:59:57;12.10;99.90
51837;DHT22;38941;53.254;6.600;2022-12-31T16:01:58;12.20;99.90
51837;DHT22;38941;53.254;6.600;2022-12-31T16:04:06;12.20;99.90
51837;DHT22;38941;53.254;6.600;2022-12-31T16:06:10;12.10;99.90
51837;DHT22;38941;53.254;6.600;2022-12-31T16:08:17;12.20;99.90
51837;DHT22;38941;53.254;6.600;2022-12-31T16:10:31;12.20;99.90
51837;DHT22;38941;53.254;6.600;2022-12-31T16:12:34;12.20;99.90
51837;DHT22;38941;53.254;6.600;2022-12-31T16:14:41;14.80;99.90
51837;DHT22;38941;53.254;6.600;2022-12-31T16:16:55;12.40;99.90
51837;DHT22;38941;53.254;6.600;2022-12-31T16:18:56;12.40;99.90
51837;DHT22;38941;53.254;6.600;2022-12-31T16:20:58;12.30;99.90
51837;DHT22;38941;53.254;6.600;2022-12-31T16:23:01;12.30;99.90
51837;DHT22;38941;53.254;6.600;2022-12-31T16:25:05;13.70;99.90
51837;DHT22;38941;53.254;6.600;2022-12-31T16:27:12;12.30;99.90
51837;DHT22;38941;53.254;6.600;2022-12-31T16:29:23;12.50;99.90
51837;DHT22;38941;53.254;6.600;2022-12-31T16:31:27;12.40;99.90
51837;DHT22;38941;53.254;6.600;2022-12-31T16:33:49;12.60;99.90
51837;DHT22;38941;53.254;6.600;2022-12-31T16:36:00;12.50;99.90
51837;DHT22;38941;53.254;6.600;2022-12-31T16:40:19;12.40;99.90
51837;DHT22;38941;53.254;6.600;2022-12-31T16:42:22;12.50;99.90
51837;DHT22;38941;53.254;6.600;2022-12-31T16:44:28;12.70;99.90
51837;DHT22;38941;53.254;6.600;2022-12-31T16:46:30;12.50;99.90
51837;DHT22;38941;53.254;6.600;2022-12-31T16:48:31;12.50;99.90
51837;DHT22;38941;53.254;6.600;2022-12-31T16:50:32;12.50;99.90
51837;DHT22;38941;53.254;6.600;2022-12-31T16:52:47;12.70;99.90
51837;DHT22;38941;53.254;6.600;2022-12-31T16:54:49;12.70;99.90
51837;DHT22;38941;53.254;6.600;2022-12-31T16:56:50;12.50;99.90
51837;DHT22;38941;53.254;6.600;2022-12-31T16:59:00;12.70;99.90
51837;DHT22;38941;53.254;6.600;2022-12-31T17:01:17;12.50;99.90
51837;DHT22;38941;53.254;6.600;2022-12-31T17:03:22;12.60;99.90
51837;DHT22;38941;53.254;6.600;2022-12-31T17:05:25;12.70;99.90
51837;DHT22;38941;53.254;6.600;2022-12-31T17:07:38;12.90;99.90
51837;DHT22;38941;53.254;6.600;2022-12-31T17:09:40;12.70;99.90
51837;DHT22;38941;53.254;6.600;2022-12-31T17:11:53;13.00;99.90
51837;DHT22;38941;53.254;6.600;2022-12-31T17:16:05;12.80;99.90
51837;DHT22;38941;53.254;6.600;2022-12-31T17:18:07;12.60;99.90
51837;DHT22;38941;53.254;6.600;2022-12-31T17:20:22;12.70;99.90
51837;DHT22;38941;53.254;6.600;2022-12-31T17:22:26;12.70;99.90
51837;DHT22;38941;53.254;6.600;2022-12-31T17:24:28;12.70;99.90
51837;DHT22;38941;53.254;6.600;2022-12-31T17:26:31;12.70;99.90
51837;DHT22;38941;53.254;6.600;2022-12-31T17:28:59;12.70;99.90
51837;DHT22;38941;53.254;6.600;2022-12-31T17:31:24;12.80;99.90